Darstellungsparameter: Aktuell verwendete Einstellungen:
Skalierung der Graphiken ... ?
xyx+y,   Skalierungsfaktor:      Skalierung: Modus: x, Faktor: 1
Darstellungszeitraum ... ?
Vom - - bis: - -   Zeitraum: 01.03.2017 - 28.03.2017
Min/Max/Avg-Anzeige ... ?
Zeige MMA aktuell
Zeige MMA Monat
Zeige MMA alles
Zeige --A aktuell
Zeige --A Monat
Zeige --A alles
Keine MMA-Anzeige
MMA:
Average (ber die Originaldaten)
MMA-Basis: 01.03.2017 - 28.03.2017
Quicknavigation für Darstellung... ?
Tage:      1T, 2T, 3T, 5T -1T -2T -3T -5T +1T +2T +3T +5T
Wochen: 1W, 2W, 3W -1W -2W -3W +1W +2W +3W
Monate: 1M, 3M, 6M -1M -3M -6M +1M +3M +6M
Jahre:    1J, 3J, 5J, 10J -1J -3J -5J -10J +1J +3J +5J +10J
Nutze für die Darstellung ... ?
Originaldaten oder ...
Mittelwerte Minima Maxima auf...
Stundenbasis Tagesbasis Wochenbasis
Monatsbasis Jahresbasis      Datenbasis: Mittelwerte auf Stundenbasis
Darstellen als:
Statistik (Auto) Statistik J:M      Darstellung:
Zur Graphik,    zurück zur Übersicht aller Sensoren.
 
Tabellarische Datenbersicht: ?
 
Sensor: Nr:Datum:Temp:Abs-Feuchte:Windchill:Wind:
Aussen-T/F 1 01-03-2017 00:00:00 5.04167 C 5.81 g/m*3 2.15 C 12.89167 km/h
2 01-03-2017 01:00:00 5.36667 C 5.99 g/m*3 1.66 C 18.9 km/h
3 01-03-2017 02:00:00 5.325 C 5.94 g/m*3 1.73 C 17.96667 km/h
4 01-03-2017 03:00:00 5.25833 C 5.98 g/m*3 2.3 C 13.56667 km/h
5 01-03-2017 04:00:00 5 C 6.06 g/m*3 2.05 C 13.16667 km/h
6 01-03-2017 05:00:00 5.46667 C 6.14 g/m*3 2.28 C 15.3 km/h
7 01-03-2017 06:00:00 5.76667 C 6.27 g/m*3 2.53 C 16.1 km/h
8 01-03-2017 07:00:00 6.03333 C 6.3 g/m*3 2.94 C 15.56667 km/h
9 01-03-2017 08:00:00 6.54167 C 6.45 g/m*3 4.18 C 11.7 km/h
10 01-03-2017 09:00:00 6.825 C 6.51 g/m*3 4.39 C 12.475 km/h
11 01-03-2017 10:00:00 7.51667 C 6.64 g/m*3 4.74 C 15.83333 km/h
12 01-03-2017 11:00:00 8.55 C 6.73 g/m*3 6 C 15.96667 km/h
13 01-03-2017 12:00:00 8.64167 C 6.81 g/m*3 6.13 C 15.83333 km/h
14 01-03-2017 13:00:00 8.88333 C 6.87 g/m*3 6.27 C 17.18333 km/h
15 01-03-2017 14:00:00 7.50833 C 6.97 g/m*3 5.81 C 9.25 km/h
16 01-03-2017 15:00:00 8.10833 C 7.08 g/m*3 6.71 C 8.325 km/h
17 01-03-2017 16:00:00 8.20833 C 6.84 g/m*3 6.26 C 11.28333 km/h
18 01-03-2017 17:00:00 7.9 C 6.8 g/m*3 5.53 C 13.55833 km/h
19 01-03-2017 18:00:00 6.69167 C 6.79 g/m*3 6.69 C 3.08333 km/h
20 01-03-2017 19:00:00 6.04167 C 6.75 g/m*3 6.04 C 0.4 km/h
21 01-03-2017 20:00:00 5.88333 C 6.78 g/m*3 5.88 C 0.26667 km/h
22 01-03-2017 21:00:00 6.1 C 6.94 g/m*3 6.1 C 0.53333 km/h
23 01-03-2017 22:00:00 6.50833 C 7.19 g/m*3 6.51 C 1.6 km/h
24 01-03-2017 23:00:00 6.975 C 7.43 g/m*3 6.98 C 0.53333 km/h
25 02-03-2017 00:00:00 7.825 C 7.83 g/m*3 6.56 C 7.525 km/h
Sensor: Nr:Datum:Temp:Abs-Feuchte:Windchill:Wind:
Aussen-T/F 26 02-03-2017 01:00:00 8.85833 C 7.86 g/m*3 7 C 11.54167 km/h
27 02-03-2017 02:00:00 8.85833 C 7.21 g/m*3 6.64 C 13.96667 km/h
28 02-03-2017 03:00:00 8.64167 C 7.05 g/m*3 6.15 C 15.7 km/h
29 02-03-2017 04:00:00 8.075 C 6.47 g/m*3 5.36 C 16.38333 km/h
30 02-03-2017 05:00:00 8.13333 C 6.32 g/m*3 5.12 C 19.05 km/h
31 02-03-2017 06:00:00 7.51667 C 5.25 g/m*3 4.13 C 21.05 km/h
32 02-03-2017 07:00:00 7.08333 C 5.29 g/m*3 4.33 C 14.9 km/h
33 02-03-2017 08:00:00 7.3 C 5.31 g/m*3 3.37 C 26.15 km/h
34 02-03-2017 09:00:00 7.575 C 5.5 g/m*3 4.15 C 21.58333 km/h
35 02-03-2017 10:00:00 8.25833 C 5.15 g/m*3 4.52 C 27.21667 km/h
36 02-03-2017 11:00:00 9.13333 C 5.13 g/m*3 5.59 C 28.025 km/h
37 02-03-2017 12:00:00 9.74167 C 5.01 g/m*3 6.4 C 27.75 km/h
38 02-03-2017 13:00:00 10.06667 C 4.96 g/m*3 7.31 C 21.58333 km/h
39 02-03-2017 14:00:00 10.45833 C 4.91 g/m*3 7.93 C 20.23333 km/h
40 02-03-2017 15:00:00 10.81667 C 4.87 g/m*3 8.36 C 20.50833 km/h
41 02-03-2017 16:00:00 10.73333 C 4.96 g/m*3 8.21 C 21.04167 km/h
42 02-03-2017 17:00:00 10.58333 C 5.22 g/m*3 8.71 C 14.36667 km/h
43 02-03-2017 18:00:00 9.36667 C 5.38 g/m*3 8.34 C 7.65 km/h
44 02-03-2017 19:00:00 8.30833 C 5.48 g/m*3 8.31 C 3.06667 km/h
45 02-03-2017 20:00:00 7.35833 C 5.77 g/m*3 7.36 C 1.73333 km/h
46 02-03-2017 21:00:00 5.59167 C 5.59 g/m*3 5.59 C 1.86667 km/h
47 02-03-2017 22:00:00 4.475 C 5.41 g/m*3 4.47 C 3.6 km/h
48 02-03-2017 23:00:00 3.95833 C 5.36 g/m*3 3.96 C 2.26667 km/h
49 03-03-2017 00:00:00 3.43333 C 5.25 g/m*3 3.43 C 1.33333 km/h
50 03-03-2017 01:00:00 3.23333 C 5.3 g/m*3 3.23 C 1.86667 km/h
Sensor: Nr:Datum:Temp:Abs-Feuchte:Windchill:Wind:
Aussen-T/F 51 03-03-2017 02:00:00 2.825 C 5.21 g/m*3 2.83 C 0.4 km/h
52 03-03-2017 03:00:00 2.4 C 5.09 g/m*3 2.4 C 0.66667 km/h
53 03-03-2017 04:00:00 1.64167 C 4.93 g/m*3 1.64 C 0 km/h
54 03-03-2017 05:00:00 0.875 C 4.73 g/m*3 0.88 C 0 km/h
55 03-03-2017 06:00:00 0.61667 C 4.73 g/m*3 0.62 C 0 km/h
56 03-03-2017 07:00:00 0.88333 C 4.84 g/m*3 0.88 C 0 km/h
57 03-03-2017 08:00:00 1.74167 C 5.18 g/m*3 1.74 C 0.13333 km/h
58 03-03-2017 09:00:00 3.74167 C 5.83 g/m*3 3.74 C 0.66667 km/h
59 03-03-2017 10:00:00 6.41667 C 6.1 g/m*3 6.42 C 1.86667 km/h
60 03-03-2017 11:00:00 9.23333 C 5.63 g/m*3 8.51 C 6.29167 km/h
61 03-03-2017 12:00:00 10.13333 C 5.54 g/m*3 9.32 C 7.25 km/h
62 03-03-2017 13:00:00 10.95 C 5.75 g/m*3 10.34 C 6.975 km/h
63 03-03-2017 14:00:00 11.38333 C 5.9 g/m*3 11.38 C 6.30833 km/h
64 03-03-2017 15:00:00 11.775 C 6.18 g/m*3 11.78 C 4.00833 km/h
65 03-03-2017 16:00:00 11.725 C 6.12 g/m*3 11.73 C 3.20833 km/h
66 03-03-2017 17:00:00 10.71667 C 6.19 g/m*3 10.72 C 2.13333 km/h
67 03-03-2017 18:00:00 8.98333 C 5.84 g/m*3 8.98 C 3.2 km/h
68 03-03-2017 19:00:00 7.70833 C 5.62 g/m*3 7.71 C 1.86667 km/h
69 03-03-2017 20:00:00 7.33333 C 5.64 g/m*3 7.33 C 2.4 km/h
70 03-03-2017 21:00:00 7.29167 C 5.78 g/m*3 7.29 C 0 km/h
71 03-03-2017 22:00:00 6.95833 C 5.89 g/m*3 6.96 C 1.73333 km/h
72 03-03-2017 23:00:00 7.225 C 5.92 g/m*3 7.23 C 2.8 km/h
73 04-03-2017 00:00:00 7.54167 C 6.08 g/m*3 7.54 C 0.93333 km/h
74 04-03-2017 01:00:00 7.64167 C 6.15 g/m*3 7.64 C 3.2 km/h
75 04-03-2017 02:00:00 7.80833 C 6.46 g/m*3 7.81 C 3.46667 km/h
Sensor: Nr:Datum:Temp:Abs-Feuchte:Windchill:Wind:
Aussen-T/F 76 04-03-2017 03:00:00 9.54167 C 6.93 g/m*3 9.54 C 4.28333 km/h
77 04-03-2017 04:00:00 10.4 C 7.02 g/m*3 10.4 C 3.33333 km/h
78 04-03-2017 05:00:00 11.49167 C 6.99 g/m*3 11.49 C 5.63333 km/h
79 04-03-2017 06:00:00 11.35833 C 6.94 g/m*3 11.36 C 5.23333 km/h
80 04-03-2017 07:00:00 9.74167 C 7.03 g/m*3 9.74 C 0 km/h
81 04-03-2017 08:00:00 9.525 C 7.07 g/m*3 9.53 C 1.06667 km/h
82 04-03-2017 09:00:00 9.55833 C 7.1 g/m*3 9.56 C 1.46667 km/h
83 04-03-2017 10:00:00 12.43333 C 7.36 g/m*3 12.43 C 1.6 km/h
84 04-03-2017 11:00:00 14.26667 C 7.24 g/m*3 14.27 C 5.475 km/h
85 04-03-2017 12:00:00 14.525 C 7.22 g/m*3 14.53 C 4.94167 km/h
86 04-03-2017 13:00:00 15.31667 C 7.3 g/m*3 15.32 C 10.35 km/h
87 04-03-2017 14:00:00 16.06667 C 7.26 g/m*3 16.07 C 6.975 km/h
88 04-03-2017 15:00:00 16.225 C 7.37 g/m*3 16.23 C 8.88333 km/h
89 04-03-2017 16:00:00 15.35 C 7.36 g/m*3 15.35 C 7.10833 km/h
90 04-03-2017 17:00:00 14.01667 C 7.92 g/m*3 14.02 C 4.15 km/h
91 04-03-2017 18:00:00 11 C 7.04 g/m*3 8.15 C 26.00833 km/h
92 04-03-2017 19:00:00 9.31667 C 7.24 g/m*3 7.47 C 12.08333 km/h
93 04-03-2017 20:00:00 8.06667 C 7.62 g/m*3 8.07 C 0.8 km/h
94 04-03-2017 21:00:00 7.41667 C 7.45 g/m*3 7.42 C 0.13333 km/h
95 04-03-2017 22:00:00 7.05 C 7.36 g/m*3 7.05 C 1.6 km/h
96 04-03-2017 23:00:00 7.25 C 7.48 g/m*3 7.25 C 1.33333 km/h
97 05-03-2017 00:00:00 7.4 C 7.55 g/m*3 6.6 C 5.625 km/h
98 05-03-2017 01:00:00 6.86667 C 6.75 g/m*3 3.76 C 17.16667 km/h
99 05-03-2017 02:00:00 6.61667 C 6.54 g/m*3 4.11 C 12.625 km/h
100 05-03-2017 03:00:00 6.48333 C 6.69 g/m*3 5.74 C 5.075 km/h
Sensor: Nr:Datum:Temp:Abs-Feuchte:Windchill:Wind:
Aussen-T/F 101 05-03-2017 04:00:00 7.04167 C 6.84 g/m*3 4.24 C 15.16667 km/h
102 05-03-2017 05:00:00 7.15 C 6.81 g/m*3 5.61 C 8.20833 km/h
103 05-03-2017 06:00:00 6.875 C 6.67 g/m*3 5.56 C 7.10833 km/h
104 05-03-2017 07:00:00 6.74167 C 6.78 g/m*3 6.74 C 3.75 km/h
105 05-03-2017 08:00:00 7.35 C 6.91 g/m*3 6.54 C 5.63333 km/h
106 05-03-2017 09:00:00 7.39167 C 7.2 g/m*3 7.39 C 2.275 km/h
107 05-03-2017 10:00:00 8.35833 C 7.13 g/m*3 7.36 C 6.83333 km/h
108 05-03-2017 11:00:00 9.625 C 7.05 g/m*3 8.17 C 10.08333 km/h
109 05-03-2017 12:00:00 8.55 C 7.17 g/m*3 7.24 C 8.30833 km/h
110 05-03-2017 13:00:00 8.475 C 7.26 g/m*3 7.36 C 7.36667 km/h
111 05-03-2017 14:00:00 9.8 C 6.87 g/m*3 8.16 C 11.41667 km/h
112 05-03-2017 15:00:00 9.59167 C 6.59 g/m*3 8.46 C 8.33333 km/h
113 05-03-2017 16:00:00 8.9 C 6.62 g/m*3 7.89 C 7.23333 km/h
114 05-03-2017 17:00:00 7.00833 C 6.97 g/m*3 7.01 C 1.86667 km/h
115 05-03-2017 18:00:00 6.08333 C 6.76 g/m*3 6.08 C 2 km/h
116 05-03-2017 19:00:00 5.61667 C 6.58 g/m*3 5.62 C 2.80833 km/h
117 05-03-2017 20:00:00 5.34167 C 6.41 g/m*3 5.34 C 0.93333 km/h
118 05-03-2017 21:00:00 5.25 C 6.42 g/m*3 4.18 C 5.49167 km/h
119 05-03-2017 22:00:00 5.25 C 6.42 g/m*3 3.35 C 8.325 km/h
120 05-03-2017 23:00:00 5.35833 C 6.49 g/m*3 2.87 C 11.03333 km/h
121 06-03-2017 00:00:00 5.45833 C 6.47 g/m*3 3.59 C 8.34167 km/h
122 06-03-2017 01:00:00 5.39167 C 6.32 g/m*3 3.29 C 9.26667 km/h
123 06-03-2017 02:00:00 5.425 C 6.29 g/m*3 3.69 C 7.775 km/h
124 06-03-2017 03:00:00 5.84167 C 6.45 g/m*3 4.47 C 6.71667 km/h
125 06-03-2017 04:00:00 5.775 C 6.44 g/m*3 4.14 C 7.64167 km/h
Sensor: Nr:Datum:Temp:Abs-Feuchte:Windchill:Wind:
Aussen-T/F 126 06-03-2017 05:00:00 5.75833 C 6.49 g/m*3 3.88 C 8.59167 km/h
127 06-03-2017 06:00:00 5.975 C 6.52 g/m*3 3.11 C 13.96667 km/h
128 06-03-2017 07:00:00 6.175 C 6.52 g/m*3 3.1 C 15.7 km/h
129 06-03-2017 08:00:00 6.45 C 6.54 g/m*3 3.47 C 15.43333 km/h
130 06-03-2017 09:00:00 6.86667 C 6.63 g/m*3 3.83 C 16.63333 km/h
131 06-03-2017 10:00:00 7.45833 C 6.69 g/m*3 4.85 C 14.5 km/h
132 06-03-2017 11:00:00 7.61667 C 6.72 g/m*3 5.41 C 12.09167 km/h
133 06-03-2017 12:00:00 7.51667 C 6.74 g/m*3 5.4 C 11.425 km/h
134 06-03-2017 13:00:00 8.16667 C 7 g/m*3 5.61 C 15.3 km/h
135 06-03-2017 14:00:00 8.36667 C 7.02 g/m*3 6.88 C 8.99167 km/h
136 06-03-2017 15:00:00 7.81667 C 7.08 g/m*3 7.82 C 4.41667 km/h
137 06-03-2017 16:00:00 7.025 C 6.99 g/m*3 5.81 C 6.85 km/h
138 06-03-2017 17:00:00 6.90833 C 6.95 g/m*3 6.91 C 2.8 km/h
139 06-03-2017 18:00:00 6.31667 C 6.85 g/m*3 6.32 C 1.86667 km/h
140 06-03-2017 19:00:00 5.65833 C 6.67 g/m*3 5.66 C 2.26667 km/h
141 06-03-2017 20:00:00 5.75833 C 6.72 g/m*3 5.76 C 2 km/h
142 06-03-2017 21:00:00 5.91667 C 6.65 g/m*3 4.49 C 6.96667 km/h
143 06-03-2017 22:00:00 6.00833 C 6.54 g/m*3 4.92 C 5.89167 km/h
144 06-03-2017 23:00:00 5.95 C 6.57 g/m*3 5.95 C 4.94167 km/h
145 07-03-2017 00:00:00 5.76667 C 6.66 g/m*3 5.77 C 1.33333 km/h
146 07-03-2017 01:00:00 5.85833 C 6.69 g/m*3 4.93 C 5.35833 km/h
147 07-03-2017 02:00:00 5.70833 C 6.66 g/m*3 5.71 C 0.8 km/h
148 07-03-2017 03:00:00 5.36667 C 6.53 g/m*3 5.37 C 0.93333 km/h
149 07-03-2017 04:00:00 5.23333 C 6.49 g/m*3 5.23 C 1.86667 km/h
150 07-03-2017 05:00:00 5.04167 C 6.4 g/m*3 5.04 C 1.86667 km/h
Sensor: Nr:Datum:Temp:Abs-Feuchte:Windchill:Wind:
Aussen-T/F 151 07-03-2017 06:00:00 4.85 C 6.32 g/m*3 4.85 C 2.26667 km/h
152 07-03-2017 07:00:00 4.775 C 6.29 g/m*3 4.78 C 2.13333 km/h
153 07-03-2017 08:00:00 5.225 C 6.44 g/m*3 5.23 C 2.53333 km/h
154 07-03-2017 09:00:00 5.775 C 6.55 g/m*3 5.78 C 3.6 km/h
155 07-03-2017 10:00:00 6.81667 C 6.9 g/m*3 5.76 C 6.16667 km/h
156 07-03-2017 11:00:00 6.59167 C 6.83 g/m*3 6.59 C 3.35 km/h
157 07-03-2017 12:00:00 7.41667 C 7.01 g/m*3 7.42 C 2 km/h
158 07-03-2017 13:00:00 7.69167 C 6.86 g/m*3 7.01 C 5.36667 km/h
159 07-03-2017 14:00:00 7.85833 C 6.84 g/m*3 6.68 C 7.225 km/h
160 07-03-2017 15:00:00 7.08333 C 7.18 g/m*3 7.08 C 4.41667 km/h
161 07-03-2017 16:00:00 7.20833 C 7.3 g/m*3 7.21 C 1.46667 km/h
162 07-03-2017 17:00:00 7.5 C 7.35 g/m*3 7.5 C 2.8 km/h
163 07-03-2017 18:00:00 6.56667 C 6.8 g/m*3 6.57 C 3.46667 km/h
164 07-03-2017 19:00:00 6.15833 C 6.78 g/m*3 6.16 C 2.4 km/h
165 07-03-2017 20:00:00 5.825 C 6.67 g/m*3 5.83 C 4.29167 km/h
166 07-03-2017 21:00:00 5.225 C 6.52 g/m*3 5.23 C 4.26667 km/h
167 07-03-2017 22:00:00 5.225 C 6.55 g/m*3 5.23 C 3.08333 km/h
168 07-03-2017 23:00:00 4.86667 C 6.4 g/m*3 4.87 C 0.53333 km/h
169 08-03-2017 00:00:00 3.56667 C 5.87 g/m*3 3.57 C 1.46667 km/h
170 08-03-2017 01:00:00 2.76667 C 5.56 g/m*3 2.77 C 0.26667 km/h
171 08-03-2017 02:00:00 2.41667 C 5.49 g/m*3 2.42 C 1.2 km/h
172 08-03-2017 03:00:00 1.96667 C 5.32 g/m*3 1.97 C 0.26667 km/h
173 08-03-2017 04:00:00 1.7 C 5.23 g/m*3 1.7 C 0.93333 km/h
174 08-03-2017 05:00:00 1.23333 C 5.06 g/m*3 1.23 C 0.13333 km/h
175 08-03-2017 06:00:00 1.30833 C 5.09 g/m*3 1.31 C 0 km/h
Sensor: Nr:Datum:Temp:Abs-Feuchte:Windchill:Wind:
Aussen-T/F 176 08-03-2017 07:00:00 1.68333 C 5.27 g/m*3 1.68 C 0.26667 km/h
177 08-03-2017 08:00:00 2.225 C 5.47 g/m*3 2.23 C 0.4 km/h
178 08-03-2017 09:00:00 3.975 C 6.17 g/m*3 3.98 C 2.13333 km/h
179 08-03-2017 10:00:00 5.85833 C 6.91 g/m*3 5.86 C 4.00833 km/h
180 08-03-2017 11:00:00 6.225 C 6.77 g/m*3 5.26 C 5.61667 km/h
181 08-03-2017 12:00:00 5.25833 C 6.47 g/m*3 5.26 C 1.06667 km/h
182 08-03-2017 13:00:00 5.1 C 6.44 g/m*3 5.1 C 1.875 km/h
183 08-03-2017 14:00:00 5.31667 C 6.59 g/m*3 5.32 C 0.8 km/h
184 08-03-2017 15:00:00 5.725 C 6.81 g/m*3 5.73 C 1.06667 km/h
185 08-03-2017 16:00:00 6.15833 C 7.04 g/m*3 6.16 C 0.4 km/h
186 08-03-2017 17:00:00 6.5 C 7.2 g/m*3 6.5 C 1.34167 km/h
187 08-03-2017 18:00:00 7.24167 C 7.59 g/m*3 6.02 C 6.975 km/h
188 08-03-2017 19:00:00 8.01667 C 7.95 g/m*3 6.15 C 10.63333 km/h
189 08-03-2017 20:00:00 8.475 C 8.18 g/m*3 6.85 C 9.8 km/h
190 08-03-2017 21:00:00 9.01667 C 8.48 g/m*3 7.73 C 8.6 km/h
191 08-03-2017 22:00:00 9.38333 C 8.67 g/m*3 8.52 C 6.96667 km/h
192 08-03-2017 23:00:00 9.25 C 8.6 g/m*3 9.25 C 1.46667 km/h
193 09-03-2017 00:00:00 9.075 C 8.5 g/m*3 9.07 C 0.26667 km/h
194 09-03-2017 01:00:00 9.025 C 8.56 g/m*3 9.03 C 0 km/h
195 09-03-2017 02:00:00 9.01667 C 8.55 g/m*3 9.02 C 0.66667 km/h
196 09-03-2017 03:00:00 8.75833 C 8.42 g/m*3 8.76 C 0 km/h
197 09-03-2017 04:00:00 8.75833 C 8.42 g/m*3 8.76 C 0.26667 km/h
198 09-03-2017 05:00:00 8.775 C 8.43 g/m*3 8.78 C 0.13333 km/h
199 09-03-2017 06:00:00 8.45 C 8.26 g/m*3 8.45 C 0 km/h
200 09-03-2017 07:00:00 8.475 C 8.27 g/m*3 8.48 C 0.13333 km/h
Sensor: Nr:Datum:Temp:Abs-Feuchte:Windchill:Wind:
Aussen-T/F 201 09-03-2017 08:00:00 9.05 C 8.59 g/m*3 9.05 C 1.2 km/h
202 09-03-2017 09:00:00 9.9 C 9.09 g/m*3 9.9 C 2.66667 km/h
203 09-03-2017 10:00:00 10.925 C 9.71 g/m*3 10.56 C 5.9 km/h
204 09-03-2017 11:00:00 12.06667 C 10.29 g/m*3 12.07 C 11.15 km/h
205 09-03-2017 12:00:00 13.58333 C 10.46 g/m*3 13.58 C 12.23333 km/h
206 09-03-2017 13:00:00 14.85 C 10.19 g/m*3 14.85 C 14.36667 km/h
207 09-03-2017 14:00:00 15.53333 C 9.69 g/m*3 15.53 C 18.90833 km/h
208 09-03-2017 15:00:00 15.08333 C 8.96 g/m*3 15.08 C 16.1 km/h
209 09-03-2017 16:00:00 14.70833 C 8.68 g/m*3 14.71 C 16.64167 km/h
210 09-03-2017 17:00:00 14.5 C 8.32 g/m*3 14.5 C 10.88333 km/h
211 09-03-2017 18:00:00 13.49167 C 8.06 g/m*3 13.49 C 11.025 km/h
212 09-03-2017 19:00:00 12.01667 C 7.85 g/m*3 12.02 C 8.73333 km/h
213 09-03-2017 20:00:00 11.075 C 7.54 g/m*3 11.08 C 8.33333 km/h
214 09-03-2017 21:00:00 10.80833 C 7.36 g/m*3 8.95 C 14.63333 km/h
215 09-03-2017 22:00:00 9.70833 C 6.61 g/m*3 8.2 C 10.49167 km/h
216 09-03-2017 23:00:00 9.04167 C 6.56 g/m*3 7.29 C 11.15 km/h
217 10-03-2017 00:00:00 8.35 C 6.43 g/m*3 6.37 C 11.69167 km/h
218 10-03-2017 01:00:00 7.68333 C 6.39 g/m*3 6.27 C 8.06667 km/h
219 10-03-2017 02:00:00 7.38333 C 6.28 g/m*3 6.05 C 7.525 km/h
220 10-03-2017 03:00:00 7.21667 C 6.31 g/m*3 6.1 C 6.575 km/h
221 10-03-2017 04:00:00 6.90833 C 6.32 g/m*3 6.22 C 5.08333 km/h
222 10-03-2017 05:00:00 6.475 C 6.18 g/m*3 5.41 C 6.03333 km/h
223 10-03-2017 06:00:00 6.13333 C 6.16 g/m*3 6.13 C 1.46667 km/h
224 10-03-2017 07:00:00 5.98333 C 6.07 g/m*3 5.98 C 2.53333 km/h
225 10-03-2017 08:00:00 6.45 C 6.04 g/m*3 6.45 C 4.00833 km/h
Sensor: Nr:Datum:Temp:Abs-Feuchte:Windchill:Wind:
Aussen-T/F 226 10-03-2017 09:00:00 6.50833 C 5.77 g/m*3 5.29 C 6.56667 km/h
227 10-03-2017 10:00:00 7.25 C 5.66 g/m*3 5.55 C 9.025 km/h
228 10-03-2017 11:00:00 7.96667 C 5.74 g/m*3 6.73 C 7.53333 km/h
229 10-03-2017 12:00:00 8.64167 C 5.83 g/m*3 7.98 C 5.75833 km/h
230 10-03-2017 13:00:00 9.65833 C 5.88 g/m*3 9.3 C 5.20833 km/h
231 10-03-2017 14:00:00 10.725 C 5.85 g/m*3 10.73 C 4.80833 km/h
232 10-03-2017 15:00:00 10.95 C 5.59 g/m*3 10.95 C 4.95 km/h
233 10-03-2017 16:00:00 11.775 C 5.24 g/m*3 11.78 C 4.41667 km/h
234 10-03-2017 17:00:00 11.68333 C 6.35 g/m*3 11.68 C 0.93333 km/h
235 10-03-2017 18:00:00 8.39167 C 6.15 g/m*3 7.78 C 5.48333 km/h
236 10-03-2017 19:00:00 6.63333 C 5.91 g/m*3 6.63 C 4.93333 km/h
237 10-03-2017 20:00:00 5.41667 C 5.82 g/m*3 5.42 C 0.53333 km/h
238 10-03-2017 21:00:00 4.325 C 5.55 g/m*3 4.33 C 0.26667 km/h
239 10-03-2017 22:00:00 3.43333 C 5.36 g/m*3 3.43 C 0 km/h
240 10-03-2017 23:00:00 3.3 C 5.42 g/m*3 3.3 C 0 km/h
241 11-03-2017 00:00:00 3.325 C 5.48 g/m*3 3.33 C 0 km/h
242 11-03-2017 01:00:00 3.63333 C 5.63 g/m*3 3.63 C 0 km/h
243 11-03-2017 02:00:00 2.98333 C 5.36 g/m*3 2.98 C 0 km/h
244 11-03-2017 03:00:00 2.3 C 5.19 g/m*3 2.3 C 0.26667 km/h
245 11-03-2017 04:00:00 2.14167 C 5.23 g/m*3 2.14 C 0.13333 km/h
246 11-03-2017 05:00:00 2.69167 C 5.47 g/m*3 2.69 C 0.13333 km/h
247 11-03-2017 06:00:00 2.35 C 5.29 g/m*3 2.35 C 0.13333 km/h
248 11-03-2017 07:00:00 1.625 C 5.07 g/m*3 1.63 C 0 km/h
249 11-03-2017 08:00:00 2.175 C 5.29 g/m*3 2.17 C 0 km/h
250 11-03-2017 09:00:00 3.1 C 5.62 g/m*3 3.1 C 1.46667 km/h
Sensor: Nr:Datum:Temp:Abs-Feuchte:Windchill:Wind:
Aussen-T/F 251 11-03-2017 10:00:00 6.09167 C 6.39 g/m*3 6.09 C 0.66667 km/h
252 11-03-2017 11:00:00 9.69167 C 6.09 g/m*3 9.38 C 5.08333 km/h
253 11-03-2017 12:00:00 11.98333 C 5.21 g/m*3 11.98 C 7.375 km/h
254 11-03-2017 13:00:00 13.15833 C 5.47 g/m*3 13.16 C 7.11667 km/h
255 11-03-2017 14:00:00 13.725 C 5.7 g/m*3 13.73 C 10.625 km/h
256 11-03-2017 15:00:00 13.94167 C 5.72 g/m*3 13.94 C 8.33333 km/h
257 11-03-2017 16:00:00 14.425 C 5.39 g/m*3 14.43 C 4.675 km/h
258 11-03-2017 17:00:00 12.50833 C 6.76 g/m*3 12.51 C 0.93333 km/h
259 11-03-2017 18:00:00 9.76667 C 6.52 g/m*3 9.77 C 2 km/h
260 11-03-2017 19:00:00 7.875 C 6.09 g/m*3 7.88 C 0 km/h
261 11-03-2017 20:00:00 7.01667 C 5.93 g/m*3 7.02 C 0 km/h
262 11-03-2017 21:00:00 5.84167 C 5.67 g/m*3 5.84 C 0 km/h
263 11-03-2017 22:00:00 4.66667 C 5.55 g/m*3 4.67 C 0 km/h
264 11-03-2017 23:00:00 4.54167 C 5.54 g/m*3 4.54 C 2.13333 km/h
265 12-03-2017 00:00:00 3.35833 C 5.26 g/m*3 3.36 C 0 km/h
266 12-03-2017 01:00:00 2.64167 C 5.13 g/m*3 2.64 C 0 km/h
267 12-03-2017 02:00:00 2.09167 C 5.05 g/m*3 2.09 C 0 km/h
268 12-03-2017 03:00:00 1.7 C 4.98 g/m*3 1.7 C 0 km/h
269 12-03-2017 04:00:00 1.35 C 4.92 g/m*3 1.35 C 0 km/h
270 12-03-2017 05:00:00 1.30833 C 4.89 g/m*3 1.31 C 0 km/h
271 12-03-2017 06:00:00 0.86667 C 4.75 g/m*3 0.87 C 0 km/h
272 12-03-2017 07:00:00 0.825 C 4.77 g/m*3 0.83 C 0 km/h
273 12-03-2017 08:00:00 1.64167 C 5.09 g/m*3 1.64 C 0 km/h
274 12-03-2017 09:00:00 3.40833 C 5.57 g/m*3 3.41 C 1.86667 km/h
275 12-03-2017 10:00:00 6.10833 C 5.95 g/m*3 6.11 C 2.8 km/h
Sensor: Nr:Datum:Temp:Abs-Feuchte:Windchill:Wind:
Aussen-T/F 276 12-03-2017 11:00:00 9.64167 C 5.86 g/m*3 8.95 C 6.43333 km/h
277 12-03-2017 12:00:00 12.15 C 5.32 g/m*3 12.15 C 7.25 km/h
278 12-03-2017 13:00:00 13.55 C 4.98 g/m*3 13.55 C 9.95 km/h
279 12-03-2017 14:00:00 14.175 C 4.84 g/m*3 14.18 C 9.68333 km/h
280 12-03-2017 15:00:00 14.31667 C 4.89 g/m*3 14.32 C 7.51667 km/h
281 12-03-2017 16:00:00 14.875 C 4.88 g/m*3 14.88 C 6.99167 km/h
282 12-03-2017 17:00:00 14.65 C 5.6 g/m*3 14.65 C 3.74167 km/h
283 12-03-2017 18:00:00 10.29167 C 5.95 g/m*3 9.91 C 5.6 km/h
284 12-03-2017 19:00:00 8.1 C 5.72 g/m*3 7.25 C 6.14167 km/h
285 12-03-2017 20:00:00 7.06667 C 5.7 g/m*3 6.27 C 5.46667 km/h
286 12-03-2017 21:00:00 5.975 C 5.6 g/m*3 5.98 C 4.53333 km/h
287 12-03-2017 22:00:00 4.95833 C 5.38 g/m*3 4.96 C 0.8 km/h
288 12-03-2017 23:00:00 4.025 C 5.21 g/m*3 4.03 C 1.06667 km/h
289 13-03-2017 00:00:00 3.36667 C 5.12 g/m*3 3.37 C 1.46667 km/h
290 13-03-2017 01:00:00 2.50833 C 4.96 g/m*3 2.51 C 0 km/h
291 13-03-2017 02:00:00 1.83333 C 4.84 g/m*3 1.83 C 0 km/h
292 13-03-2017 03:00:00 1.38333 C 4.74 g/m*3 1.38 C 0 km/h
293 13-03-2017 04:00:00 0.59167 C 4.56 g/m*3 0.59 C 0 km/h
294 13-03-2017 05:00:00 0.43333 C 4.56 g/m*3 0.43 C 0 km/h
295 13-03-2017 06:00:00 0.31667 C 4.54 g/m*3 0.32 C 0 km/h
296 13-03-2017 07:00:00 0.09167 C 4.51 g/m*3 0.09 C 0 km/h
297 13-03-2017 08:00:00 0.575 C 4.69 g/m*3 0.57 C 0 km/h
298 13-03-2017 09:00:00 2.09167 C 5.21 g/m*3 2.09 C 0 km/h
299 13-03-2017 10:00:00 5.55833 C 5.88 g/m*3 5.56 C 0 km/h
300 13-03-2017 11:00:00 8.73333 C 5.91 g/m*3 8.73 C 0.26667 km/h
Sensor: Nr:Datum:Temp:Abs-Feuchte:Windchill:Wind:
Aussen-T/F 301 13-03-2017 12:00:00 10.40833 C 5.95 g/m*3 10.41 C 1.86667 km/h
302 13-03-2017 13:00:00 12.5 C 5.95 g/m*3 12.5 C 4.68333 km/h
303 13-03-2017 14:00:00 13.74167 C 6.03 g/m*3 13.74 C 7.79167 km/h
304 13-03-2017 15:00:00 14.475 C 6.3 g/m*3 14.48 C 8.6 km/h
305 13-03-2017 16:00:00 14.775 C 6.59 g/m*3 14.78 C 8.61667 km/h
306 13-03-2017 17:00:00 13.775 C 6.74 g/m*3 13.78 C 8.88333 km/h
307 13-03-2017 18:00:00 11.84167 C 6.5 g/m*3 11.84 C 3.86667 km/h
308 13-03-2017 19:00:00 9.88333 C 6.55 g/m*3 9.6 C 5.06667 km/h
309 13-03-2017 20:00:00 8.89167 C 6.63 g/m*3 8.89 C 4.8 km/h
310 13-03-2017 21:00:00 7.625 C 6.59 g/m*3 7.63 C 1.73333 km/h
311 13-03-2017 22:00:00 7.73333 C 6.8 g/m*3 7.73 C 1.33333 km/h
312 13-03-2017 23:00:00 7.90833 C 7.12 g/m*3 7.91 C 2 km/h
313 14-03-2017 00:00:00 7.64167 C 7.01 g/m*3 7.64 C 0.4 km/h
314 14-03-2017 01:00:00 6.74167 C 6.77 g/m*3 6.74 C 0.53333 km/h
315 14-03-2017 02:00:00 7.19167 C 7.05 g/m*3 7.19 C 0.53333 km/h
316 14-03-2017 03:00:00 7.43333 C 7.08 g/m*3 7.43 C 0.13333 km/h
317 14-03-2017 04:00:00 7.73333 C 7.42 g/m*3 7.73 C 1.6 km/h
318 14-03-2017 05:00:00 6.88333 C 7.04 g/m*3 6.88 C 1.33333 km/h
319 14-03-2017 06:00:00 6.03333 C 6.7 g/m*3 6.03 C 1.33333 km/h
320 14-03-2017 07:00:00 5.125 C 6.35 g/m*3 5.13 C 0.53333 km/h
321 14-03-2017 08:00:00 5.13333 C 6.44 g/m*3 5.13 C 0.26667 km/h
322 14-03-2017 09:00:00 6.80833 C 7.19 g/m*3 6.81 C 3.875 km/h
323 14-03-2017 10:00:00 8.68333 C 7.54 g/m*3 8.11 C 5.475 km/h
324 14-03-2017 11:00:00 10.68333 C 6.92 g/m*3 10.68 C 4.54167 km/h
325 14-03-2017 12:00:00 11.725 C 6.95 g/m*3 11.73 C 4.54167 km/h
Sensor: Nr:Datum:Temp:Abs-Feuchte:Windchill:Wind:
Aussen-T/F 326 14-03-2017 13:00:00 13.14167 C 7.16 g/m*3 13.14 C 4.53333 km/h
327 14-03-2017 14:00:00 14.425 C 7.2 g/m*3 14.43 C 6.7 km/h
328 14-03-2017 15:00:00 15.15833 C 7.16 g/m*3 15.16 C 6.7 km/h
329 14-03-2017 16:00:00 15.55 C 7.41 g/m*3 15.55 C 3.2 km/h
330 14-03-2017 17:00:00 14.85 C 7.85 g/m*3 14.85 C 0.4 km/h
331 14-03-2017 18:00:00 11.86667 C 7.72 g/m*3 11.87 C 5.06667 km/h
332 14-03-2017 19:00:00 10.48333 C 7.49 g/m*3 10.48 C 4.8 km/h
333 14-03-2017 20:00:00 9.64167 C 7.35 g/m*3 9.64 C 2 km/h
334 14-03-2017 21:00:00 8.575 C 7.11 g/m*3 8.57 C 0.53333 km/h
335 14-03-2017 22:00:00 7.86667 C 7.01 g/m*3 7.87 C 1.6 km/h
336 14-03-2017 23:00:00 7.575 C 7.09 g/m*3 7.58 C 1.06667 km/h
337 15-03-2017 00:00:00 8.2 C 7.48 g/m*3 8.2 C 0.93333 km/h
338 15-03-2017 01:00:00 8.575 C 7.5 g/m*3 8.57 C 0.4 km/h
339 15-03-2017 02:00:00 8.40833 C 7.43 g/m*3 8.41 C 0.4 km/h
340 15-03-2017 03:00:00 8.34167 C 7.43 g/m*3 8.34 C 0.26667 km/h
341 15-03-2017 04:00:00 8.54167 C 7.55 g/m*3 8.54 C 1.86667 km/h
342 15-03-2017 05:00:00 8.725 C 7.62 g/m*3 8.73 C 0.8 km/h
343 15-03-2017 06:00:00 8.46667 C 7.52 g/m*3 8.47 C 0.8 km/h
344 15-03-2017 07:00:00 8.3 C 7.48 g/m*3 8.3 C 0 km/h
345 15-03-2017 08:00:00 8.60833 C 7.69 g/m*3 8.61 C 0.53333 km/h
346 15-03-2017 09:00:00 9.61667 C 8.16 g/m*3 9.62 C 1.46667 km/h
347 15-03-2017 10:00:00 10.91667 C 8.74 g/m*3 10.92 C 2.4 km/h
348 15-03-2017 11:00:00 12.06667 C 8.72 g/m*3 12.07 C 7.525 km/h
349 15-03-2017 12:00:00 13.025 C 8.63 g/m*3 13.03 C 5.475 km/h
350 15-03-2017 13:00:00 13.575 C 8.47 g/m*3 13.58 C 8.60833 km/h
Sensor: Nr:Datum:Temp:Abs-Feuchte:Windchill:Wind:
Aussen-T/F 351 15-03-2017 14:00:00 14.21667 C 8.02 g/m*3 14.22 C 8.73333 km/h
352 15-03-2017 15:00:00 14.75 C 7.62 g/m*3 14.75 C 9.00833 km/h
353 15-03-2017 16:00:00 15.54167 C 7.61 g/m*3 15.54 C 7.10833 km/h
354 15-03-2017 17:00:00 15.9 C 7.34 g/m*3 15.9 C 6.83333 km/h
355 15-03-2017 18:00:00 13.55833 C 7.32 g/m*3 13.56 C 5.475 km/h
356 15-03-2017 19:00:00 10.55833 C 7.4 g/m*3 10.37 C 5.06667 km/h
357 15-03-2017 20:00:00 9.775 C 7.41 g/m*3 9.78 C 4 km/h
358 15-03-2017 21:00:00 8.29167 C 7.02 g/m*3 8.29 C 0.8 km/h
359 15-03-2017 22:00:00 6.58333 C 6.59 g/m*3 6.58 C 0 km/h
360 15-03-2017 23:00:00 5.41667 C 6.25 g/m*3 5.42 C 0 km/h
361 16-03-2017 00:00:00 4.50833 C 6.05 g/m*3 4.51 C 0 km/h
362 16-03-2017 01:00:00 3.96667 C 5.89 g/m*3 3.97 C 0 km/h
363 16-03-2017 02:00:00 3.46667 C 5.76 g/m*3 3.47 C 0 km/h
364 16-03-2017 03:00:00 3.03333 C 5.62 g/m*3 3.03 C 0 km/h
365 16-03-2017 04:00:00 2.80833 C 5.57 g/m*3 2.81 C 0.93333 km/h
366 16-03-2017 05:00:00 2.13333 C 5.31 g/m*3 2.13 C 0 km/h
367 16-03-2017 06:00:00 1.65 C 5.15 g/m*3 1.65 C 0 km/h
368 16-03-2017 07:00:00 1.61667 C 5.16 g/m*3 1.62 C 0 km/h
369 16-03-2017 08:00:00 2.33333 C 5.46 g/m*3 2.33 C 0 km/h
370 16-03-2017 09:00:00 3.55 C 5.93 g/m*3 3.55 C 0 km/h
371 16-03-2017 10:00:00 5.81667 C 6.93 g/m*3 5.82 C 0 km/h
372 16-03-2017 11:00:00 8.75833 C 7.79 g/m*3 8.76 C 0.53333 km/h
373 16-03-2017 12:00:00 12.35 C 7.69 g/m*3 12.35 C 0.53333 km/h
374 16-03-2017 13:00:00 14.975 C 7.1 g/m*3 14.98 C 4 km/h
375 16-03-2017 14:00:00 16.525 C 6.63 g/m*3 16.52 C 3.6 km/h
Sensor: Nr:Datum:Temp:Abs-Feuchte:Windchill:Wind:
Aussen-T/F 376 16-03-2017 15:00:00 17.28333 C 6.7 g/m*3 17.28 C 3.33333 km/h
377 16-03-2017 16:00:00 18.50833 C 7.44 g/m*3 18.51 C 1.33333 km/h
378 16-03-2017 17:00:00 18.09167 C 8.13 g/m*3 18.09 C 1.86667 km/h
379 16-03-2017 18:00:00 13.75 C 7.6 g/m*3 13.75 C 5.46667 km/h
380 16-03-2017 19:00:00 11.75 C 7.11 g/m*3 11.75 C 4.93333 km/h
381 16-03-2017 20:00:00 10.13333 C 6.98 g/m*3 10.13 C 2.53333 km/h
382 16-03-2017 21:00:00 8.575 C 6.73 g/m*3 8.57 C 0.13333 km/h
383 16-03-2017 22:00:00 7.575 C 6.55 g/m*3 7.58 C 0.13333 km/h
384 16-03-2017 23:00:00 6.65833 C 6.36 g/m*3 6.66 C 0.26667 km/h
385 17-03-2017 00:00:00 5.83333 C 6.15 g/m*3 5.83 C 0 km/h
386 17-03-2017 01:00:00 5.41667 C 6.11 g/m*3 5.42 C 0 km/h
387 17-03-2017 02:00:00 4.825 C 5.98 g/m*3 4.83 C 0.66667 km/h
388 17-03-2017 03:00:00 5.04167 C 6.07 g/m*3 5.04 C 0.4 km/h
389 17-03-2017 04:00:00 4.73333 C 6 g/m*3 4.73 C 0.8 km/h
390 17-03-2017 05:00:00 5.29167 C 6.14 g/m*3 5.29 C 2.53333 km/h
391 17-03-2017 06:00:00 5.98333 C 6.37 g/m*3 5.98 C 2.41667 km/h
392 17-03-2017 07:00:00 6.8 C 6.62 g/m*3 6.8 C 1.73333 km/h
393 17-03-2017 08:00:00 7.5 C 6.77 g/m*3 7.5 C 1.73333 km/h
394 17-03-2017 09:00:00 8 C 6.97 g/m*3 8 C 1.06667 km/h
395 17-03-2017 10:00:00 9.93333 C 7.73 g/m*3 9.42 C 5.9 km/h
396 17-03-2017 11:00:00 12.03333 C 7.87 g/m*3 12.03 C 8.34167 km/h
397 17-03-2017 12:00:00 11.75833 C 7.68 g/m*3 11.76 C 13.3 km/h
398 17-03-2017 13:00:00 11.78333 C 8 g/m*3 11.78 C 10.475 km/h
399 17-03-2017 14:00:00 12.08333 C 7.49 g/m*3 12.08 C 15.03333 km/h
400 17-03-2017 15:00:00 12.3 C 6.65 g/m*3 12.3 C 14.775 km/h
Sensor: Nr:Datum:Temp:Abs-Feuchte:Windchill:Wind:
Aussen-T/F 401 17-03-2017 16:00:00 12.225 C 6.61 g/m*3 12.23 C 10.76667 km/h
402 17-03-2017 17:00:00 11.76667 C 6.51 g/m*3 11.77 C 9 km/h
403 17-03-2017 18:00:00 10.89167 C 6.55 g/m*3 10.52 C 5.89167 km/h
404 17-03-2017 19:00:00 9.35833 C 6.53 g/m*3 9.36 C 1.2 km/h
405 17-03-2017 20:00:00 8.375 C 6.3 g/m*3 8.38 C 1.46667 km/h
406 17-03-2017 21:00:00 8.13333 C 6.39 g/m*3 8.13 C 2.80833 km/h
407 17-03-2017 22:00:00 9.10833 C 6.34 g/m*3 7.63 C 9.66667 km/h
408 17-03-2017 23:00:00 9.26667 C 5.63 g/m*3 7.14 C 13.96667 km/h
409 18-03-2017 00:00:00 9.125 C 5.85 g/m*3 7.1 C 13.03333 km/h
410 18-03-2017 01:00:00 8.65 C 6.28 g/m*3 6.21 C 15.3 km/h
411 18-03-2017 02:00:00 7.58333 C 6.34 g/m*3 4.89 C 15.3 km/h
412 18-03-2017 03:00:00 6.91667 C 6.25 g/m*3 3.43 C 20.50833 km/h
413 18-03-2017 04:00:00 7.00833 C 6.37 g/m*3 3.5 C 20.90833 km/h
414 18-03-2017 05:00:00 6.78333 C 6.61 g/m*3 3.25 C 20.64167 km/h
415 18-03-2017 06:00:00 7.075 C 6.77 g/m*3 3.61 C 20.65 km/h
416 18-03-2017 07:00:00 7.225 C 7.02 g/m*3 3.95 C 19.3 km/h
417 18-03-2017 08:00:00 7.24167 C 7.29 g/m*3 3.99 C 19.175 km/h
418 18-03-2017 09:00:00 7.80833 C 7.63 g/m*3 5.42 C 13.56667 km/h
419 18-03-2017 10:00:00 8.96667 C 8.11 g/m*3 6.45 C 16.5 km/h
420 18-03-2017 11:00:00 9.95833 C 8.42 g/m*3 7.78 C 15.7 km/h
421 18-03-2017 12:00:00 10.50833 C 8.58 g/m*3 8.6 C 14.5 km/h
422 18-03-2017 13:00:00 11.05 C 8.85 g/m*3 11.05 C 15.43333 km/h
423 18-03-2017 14:00:00 11.43333 C 9.09 g/m*3 11.43 C 14.36667 km/h
424 18-03-2017 15:00:00 11.75833 C 9.44 g/m*3 11.76 C 10.9 km/h
425 18-03-2017 16:00:00 12.01667 C 9.58 g/m*3 12.02 C 12.5 km/h
Sensor: Nr:Datum:Temp:Abs-Feuchte:Windchill:Wind:
Aussen-T/F 426 18-03-2017 17:00:00 12.2 C 9.63 g/m*3 12.2 C 12.89167 km/h
427 18-03-2017 18:00:00 11.83333 C 9.68 g/m*3 11.83 C 10.475 km/h
428 18-03-2017 19:00:00 11.23333 C 9.51 g/m*3 11.23 C 6.425 km/h
429 18-03-2017 20:00:00 11.05833 C 9.54 g/m*3 11.06 C 7.8 km/h
430 18-03-2017 21:00:00 10.86667 C 9.43 g/m*3 10.64 C 5.34167 km/h
431 18-03-2017 22:00:00 10.725 C 9.35 g/m*3 10.3 C 6.03333 km/h
432 18-03-2017 23:00:00 9.90833 C 8.88 g/m*3 9.91 C 2.40833 km/h
433 19-03-2017 00:00:00 9.60833 C 8.78 g/m*3 9.61 C 1.06667 km/h
434 19-03-2017 01:00:00 9.40833 C 8.69 g/m*3 9.41 C 0 km/h
435 19-03-2017 02:00:00 9.375 C 8.67 g/m*3 9.38 C 0 km/h
436 19-03-2017 03:00:00 10.09167 C 9.14 g/m*3 9.43 C 6.56667 km/h
437 19-03-2017 04:00:00 10.45833 C 9.29 g/m*3 9.56 C 7.925 km/h
438 19-03-2017 05:00:00 10.56667 C 9.33 g/m*3 9.55 C 8.60833 km/h
439 19-03-2017 06:00:00 10.69167 C 9.33 g/m*3 10.07 C 6.84167 km/h
440 19-03-2017 07:00:00 10.9 C 9.42 g/m*3 10.05 C 8.075 km/h
441 19-03-2017 08:00:00 11.59167 C 9.52 g/m*3 11.59 C 12.23333 km/h
442 19-03-2017 09:00:00 12.28333 C 9.66 g/m*3 12.28 C 19.175 km/h
443 19-03-2017 10:00:00 12.24167 C 9.53 g/m*3 12.24 C 21.96667 km/h
444 19-03-2017 11:00:00 12.71667 C 9.79 g/m*3 12.72 C 16.76667 km/h
445 19-03-2017 12:00:00 13.86667 C 10.16 g/m*3 13.87 C 15.3 km/h
446 19-03-2017 13:00:00 14.675 C 10.21 g/m*3 14.68 C 18.63333 km/h
447 19-03-2017 14:00:00 15.25 C 10.12 g/m*3 15.25 C 13.3 km/h
448 19-03-2017 15:00:00 15.23333 C 9.9 g/m*3 15.23 C 13.025 km/h
449 19-03-2017 16:00:00 15.1 C 9.44 g/m*3 15.1 C 17.7 km/h
450 19-03-2017 17:00:00 14.4 C 9.12 g/m*3 14.4 C 17.7 km/h
Sensor: Nr:Datum:Temp:Abs-Feuchte:Windchill:Wind:
Aussen-T/F 451 19-03-2017 18:00:00 13.525 C 8.3 g/m*3 13.53 C 15.03333 km/h
452 19-03-2017 19:00:00 12.86667 C 8 g/m*3 12.87 C 15.56667 km/h
453 19-03-2017 20:00:00 12.225 C 8.08 g/m*3 12.23 C 10.34167 km/h
454 19-03-2017 21:00:00 11.69167 C 8.11 g/m*3 11.69 C 4.95833 km/h
455 19-03-2017 22:00:00 11.55 C 8.12 g/m*3 11.55 C 4.825 km/h
456 19-03-2017 23:00:00 11.425 C 7.87 g/m*3 11.43 C 9.15 km/h
457 20-03-2017 00:00:00 11.29167 C 7.7 g/m*3 11.29 C 11.025 km/h
458 20-03-2017 01:00:00 11.175 C 7.69 g/m*3 11.18 C 12.23333 km/h
459 20-03-2017 02:00:00 10.86667 C 7.68 g/m*3 9.06 C 14.36667 km/h
460 20-03-2017 03:00:00 10.54167 C 7.72 g/m*3 8.67 C 14.23333 km/h
461 20-03-2017 04:00:00 10.53333 C 7.69 g/m*3 8.37 C 16.76667 km/h
462 20-03-2017 05:00:00 10.525 C 7.75 g/m*3 8.51 C 15.43333 km/h
463 20-03-2017 06:00:00 10.4 C 7.73 g/m*3 8.25 C 16.36667 km/h
464 20-03-2017 07:00:00 10.45833 C 7.76 g/m*3 7.92 C 20.39167 km/h
465 20-03-2017 08:00:00 10.93333 C 7.88 g/m*3 8.88 C 16.63333 km/h
466 20-03-2017 09:00:00 11.575 C 8.09 g/m*3 11.58 C 16.76667 km/h
467 20-03-2017 10:00:00 12.55833 C 8.17 g/m*3 12.56 C 19.03333 km/h
468 20-03-2017 11:00:00 13.16667 C 7.82 g/m*3 13.17 C 19.44167 km/h
469 20-03-2017 12:00:00 13.8 C 7.97 g/m*3 13.8 C 22.925 km/h
470 20-03-2017 13:00:00 13.48333 C 7.98 g/m*3 13.48 C 13.3 km/h
471 20-03-2017 14:00:00 13.625 C 7.94 g/m*3 13.63 C 14.9 km/h
472 20-03-2017 15:00:00 13.04167 C 7.92 g/m*3 13.04 C 14.9 km/h
473 20-03-2017 16:00:00 12.55 C 7.88 g/m*3 12.55 C 13.7 km/h
474 20-03-2017 17:00:00 12.08333 C 7.64 g/m*3 12.08 C 10.075 km/h
475 20-03-2017 18:00:00 11.73333 C 7.42 g/m*3 11.73 C 14.63333 km/h
Sensor: Nr:Datum:Temp:Abs-Feuchte:Windchill:Wind:
Aussen-T/F 476 20-03-2017 19:00:00 11.2 C 7.23 g/m*3 11.2 C 13.04167 km/h
477 20-03-2017 20:00:00 10.80833 C 7.32 g/m*3 10.43 C 5.89167 km/h
478 20-03-2017 21:00:00 10.75833 C 7.34 g/m*3 9.84 C 8.31667 km/h
479 20-03-2017 22:00:00 10.75833 C 7.39 g/m*3 9.3 C 11.55 km/h
480 20-03-2017 23:00:00 10.6 C 7.38 g/m*3 9.55 C 8.85833 km/h
481 21-03-2017 00:00:00 10.7 C 7.46 g/m*3 9.11 C 12.35833 km/h
482 21-03-2017 01:00:00 10.775 C 7.53 g/m*3 9.01 C 13.83333 km/h
483 21-03-2017 02:00:00 10.875 C 7.66 g/m*3 8.99 C 15.03333 km/h
484 21-03-2017 03:00:00 10.75833 C 7.92 g/m*3 9.37 C 11.03333 km/h
485 21-03-2017 04:00:00 10.48333 C 8.15 g/m*3 9.08 C 10.76667 km/h
486 21-03-2017 05:00:00 9.74167 C 8.33 g/m*3 9.17 C 6.03333 km/h
487 21-03-2017 06:00:00 9.39167 C 8.34 g/m*3 9.39 C 4.55 km/h
488 21-03-2017 07:00:00 9.3 C 8.4 g/m*3 9.3 C 3.61667 km/h
489 21-03-2017 08:00:00 9.50833 C 8.55 g/m*3 9.51 C 4.95 km/h
490 21-03-2017 09:00:00 10.21667 C 8.7 g/m*3 9.75 C 5.88333 km/h
491 21-03-2017 10:00:00 11.3 C 8.7 g/m*3 11.3 C 9.54167 km/h
492 21-03-2017 11:00:00 12.16667 C 8.06 g/m*3 12.17 C 12.76667 km/h
493 21-03-2017 12:00:00 12.64167 C 7.39 g/m*3 12.64 C 15.96667 km/h
494 21-03-2017 13:00:00 10.79167 C 7.65 g/m*3 9.42 C 11 km/h
495 21-03-2017 14:00:00 9.475 C 8.17 g/m*3 9.48 C 1.33333 km/h
496 21-03-2017 15:00:00 8.63333 C 7.41 g/m*3 7.86 C 6.15 km/h
497 21-03-2017 16:00:00 8.40833 C 7.41 g/m*3 8.41 C 3.20833 km/h
498 21-03-2017 17:00:00 8.88333 C 7.26 g/m*3 8.88 C 2.66667 km/h
499 21-03-2017 18:00:00 8.56667 C 6.95 g/m*3 8.57 C 1.73333 km/h
500 21-03-2017 19:00:00 7.75833 C 6.59 g/m*3 7.76 C 1.86667 km/h
Sensor: Nr:Datum:Temp:Abs-Feuchte:Windchill:Wind:
Aussen-T/F 501 21-03-2017 20:00:00 7.31667 C 6.07 g/m*3 7.32 C 2.4 km/h
502 21-03-2017 21:00:00 6.74167 C 6.09 g/m*3 6.74 C 1.2 km/h
503 21-03-2017 22:00:00 5.8 C 6.23 g/m*3 5.8 C 0 km/h
504 21-03-2017 23:00:00 4.76667 C 5.92 g/m*3 4.77 C 0 km/h
505 22-03-2017 00:00:00 3.71667 C 5.6 g/m*3 3.72 C 0.8 km/h
506 22-03-2017 01:00:00 2.71667 C 5.26 g/m*3 2.72 C 0 km/h
507 22-03-2017 02:00:00 1.85833 C 5.03 g/m*3 1.86 C 0 km/h
508 22-03-2017 03:00:00 1.45 C 4.96 g/m*3 1.45 C 0 km/h
509 22-03-2017 04:00:00 1.04167 C 4.85 g/m*3 1.04 C 0 km/h
510 22-03-2017 05:00:00 0.95 C 4.88 g/m*3 0.95 C 0 km/h
511 22-03-2017 06:00:00 1.25 C 5.02 g/m*3 1.25 C 0.13333 km/h
512 22-03-2017 07:00:00 1.53333 C 5.11 g/m*3 1.53 C 0 km/h
513 22-03-2017 08:00:00 2.13333 C 5.36 g/m*3 2.13 C 0.66667 km/h
514 22-03-2017 09:00:00 3.14167 C 5.76 g/m*3 3.14 C 1.33333 km/h
515 22-03-2017 10:00:00 4.53333 C 6.17 g/m*3 4.53 C 1.46667 km/h
516 22-03-2017 11:00:00 5.94167 C 6.62 g/m*3 5.94 C 1.6 km/h
517 22-03-2017 12:00:00 7.575 C 6.85 g/m*3 7.58 C 3.73333 km/h
518 22-03-2017 13:00:00 8.45833 C 6.99 g/m*3 7.81 C 5.63333 km/h
519 22-03-2017 14:00:00 9.125 C 6.96 g/m*3 8.24 C 6.85833 km/h
520 22-03-2017 15:00:00 9.84167 C 6.9 g/m*3 8.98 C 7.25 km/h
521 22-03-2017 16:00:00 9.56667 C 6.76 g/m*3 9.57 C 4.56667 km/h
522 22-03-2017 17:00:00 9 C 7.05 g/m*3 9 C 0 km/h
523 22-03-2017 18:00:00 8.35833 C 7.05 g/m*3 8.36 C 0.53333 km/h
524 22-03-2017 19:00:00 7.88333 C 6.97 g/m*3 7.88 C 0.26667 km/h
525 22-03-2017 20:00:00 7.575 C 6.96 g/m*3 7.58 C 0.13333 km/h
Sensor: Nr:Datum:Temp:Abs-Feuchte:Windchill:Wind:
Aussen-T/F 526 22-03-2017 21:00:00 7.325 C 6.92 g/m*3 7.33 C 0 km/h
527 22-03-2017 22:00:00 7.21667 C 6.95 g/m*3 7.22 C 0 km/h
528 22-03-2017 23:00:00 7.2 C 6.99 g/m*3 7.2 C 0 km/h
529 23-03-2017 00:00:00 7.075 C 6.96 g/m*3 7.08 C 0 km/h
530 23-03-2017 01:00:00 6.35 C 6.67 g/m*3 6.35 C 1.33333 km/h
531 23-03-2017 02:00:00 5.775 C 6.52 g/m*3 5.78 C 0.53333 km/h
532 23-03-2017 03:00:00 5.075 C 6.31 g/m*3 5.08 C 1.2 km/h
533 23-03-2017 04:00:00 4.51667 C 6.13 g/m*3 4.52 C 3.2 km/h
534 23-03-2017 05:00:00 3.625 C 5.81 g/m*3 3.63 C 0.8 km/h
535 23-03-2017 06:00:00 2.875 C 5.57 g/m*3 2.88 C 0 km/h
536 23-03-2017 07:00:00 3.9 C 6.05 g/m*3 3.9 C 0 km/h
537 23-03-2017 08:00:00 5.10833 C 6.56 g/m*3 5.11 C 0.53333 km/h
538 23-03-2017 09:00:00 6.675 C 7.11 g/m*3 6.68 C 2.675 km/h
539 23-03-2017 10:00:00 8.45833 C 7.34 g/m*3 7.54 C 6.59167 km/h
540 23-03-2017 11:00:00 9.225 C 7.4 g/m*3 7.51 C 11.16667 km/h
541 23-03-2017 12:00:00 10.60833 C 7.76 g/m*3 9.51 C 9.14167 km/h
542 23-03-2017 13:00:00 12.7 C 7.89 g/m*3 12.7 C 9.00833 km/h
543 23-03-2017 14:00:00 14.35833 C 7.78 g/m*3 14.36 C 8.875 km/h
544 23-03-2017 15:00:00 14.925 C 7.86 g/m*3 14.93 C 9.95 km/h
545 23-03-2017 16:00:00 15.86667 C 7.83 g/m*3 15.87 C 8.6 km/h
546 23-03-2017 17:00:00 16.23333 C 7.57 g/m*3 16.23 C 6.56667 km/h
547 23-03-2017 18:00:00 14.45833 C 7.9 g/m*3 14.46 C 3.2 km/h
548 23-03-2017 19:00:00 10.74167 C 7.37 g/m*3 10.36 C 5.86667 km/h
549 23-03-2017 20:00:00 9.59167 C 7.35 g/m*3 8.93 C 6.26667 km/h
550 23-03-2017 21:00:00 8.85 C 7.33 g/m*3 8.85 C 2.4 km/h
Sensor: Nr:Datum:Temp:Abs-Feuchte:Windchill:Wind:
Aussen-T/F 551 23-03-2017 22:00:00 7.81667 C 7.14 g/m*3 7.82 C 1.46667 km/h
552 23-03-2017 23:00:00 7.43333 C 7.15 g/m*3 7.43 C 1.2 km/h
553 24-03-2017 00:00:00 6.875 C 6.97 g/m*3 6.88 C 1.33333 km/h
554 24-03-2017 01:00:00 6.95833 C 7.11 g/m*3 6.96 C 0.13333 km/h
555 24-03-2017 02:00:00 7 C 7.06 g/m*3 7 C 0.53333 km/h
556 24-03-2017 03:00:00 7.55833 C 7.27 g/m*3 7.56 C 1.06667 km/h
557 24-03-2017 04:00:00 8.10833 C 7.24 g/m*3 8.11 C 2.80833 km/h
558 24-03-2017 05:00:00 8.21667 C 7.09 g/m*3 8.22 C 2 km/h
559 24-03-2017 06:00:00 8.23333 C 6.98 g/m*3 8.23 C 4.94167 km/h
560 24-03-2017 07:00:00 8.21667 C 6.86 g/m*3 6.27 C 11.28333 km/h
561 24-03-2017 08:00:00 8.4 C 6.77 g/m*3 6.91 C 9.00833 km/h
562 24-03-2017 09:00:00 8.91667 C 6.82 g/m*3 7.23 C 10.63333 km/h
563 24-03-2017 10:00:00 9.53333 C 6.77 g/m*3 7.82 C 11.55833 km/h
564 24-03-2017 11:00:00 10.25 C 6.85 g/m*3 8.94 C 9.94167 km/h
565 24-03-2017 12:00:00 10.6 C 6.91 g/m*3 8.57 C 15.7 km/h
566 24-03-2017 13:00:00 11.3 C 6.94 g/m*3 11.3 C 15.56667 km/h
567 24-03-2017 14:00:00 12.325 C 6.91 g/m*3 12.33 C 15.7 km/h
568 24-03-2017 15:00:00 13.65833 C 6.88 g/m*3 13.66 C 11.41667 km/h
569 24-03-2017 16:00:00 14.56667 C 6.77 g/m*3 14.57 C 13.7 km/h
570 24-03-2017 17:00:00 14.96667 C 6.82 g/m*3 14.97 C 12.35833 km/h
571 24-03-2017 18:00:00 13.38333 C 6.92 g/m*3 13.38 C 3.88333 km/h
572 24-03-2017 19:00:00 9.74167 C 6.82 g/m*3 9.74 C 2.4 km/h
573 24-03-2017 20:00:00 8.35833 C 6.66 g/m*3 8.36 C 1.6 km/h
574 24-03-2017 21:00:00 7.675 C 6.48 g/m*3 7.68 C 2.66667 km/h
575 24-03-2017 22:00:00 6.83333 C 6.33 g/m*3 6.83 C 2.66667 km/h
Sensor: Nr:Datum:Temp:Abs-Feuchte:Windchill:Wind:
Aussen-T/F 576 24-03-2017 23:00:00 6.19167 C 6.21 g/m*3 6.19 C 3.46667 km/h
577 25-03-2017 00:00:00 5.63333 C 6.08 g/m*3 5.63 C 2.26667 km/h
578 25-03-2017 01:00:00 5.15833 C 5.97 g/m*3 5.16 C 3.06667 km/h
579 25-03-2017 02:00:00 4.70833 C 5.88 g/m*3 4.71 C 3.2 km/h
580 25-03-2017 03:00:00 4.30833 C 5.76 g/m*3 4.31 C 1.86667 km/h
581 25-03-2017 04:00:00 3.44167 C 5.52 g/m*3 3.44 C 0.8 km/h
582 25-03-2017 05:00:00 3.1 C 5.46 g/m*3 3.1 C 0.13333 km/h
583 25-03-2017 06:00:00 3.275 C 5.49 g/m*3 3.28 C 1.46667 km/h
584 25-03-2017 07:00:00 3.36667 C 5.56 g/m*3 3.37 C 1.33333 km/h
585 25-03-2017 08:00:00 4.06667 C 5.81 g/m*3 4.07 C 2.13333 km/h
586 25-03-2017 09:00:00 5.95833 C 6.31 g/m*3 5.96 C 2.93333 km/h
587 25-03-2017 10:00:00 9.475 C 6.66 g/m*3 8.41 C 7.91667 km/h
588 25-03-2017 11:00:00 12.28333 C 6.22 g/m*3 12.28 C 9.425 km/h
589 25-03-2017 12:00:00 13.9 C 4.91 g/m*3 13.9 C 20.38333 km/h
590 25-03-2017 13:00:00 14.8 C 5.06 g/m*3 14.8 C 17.83333 km/h
591 25-03-2017 14:00:00 15.39167 C 4.98 g/m*3 15.39 C 15.83333 km/h
592 25-03-2017 15:00:00 15.98333 C 4.83 g/m*3 15.98 C 17.56667 km/h
593 25-03-2017 16:00:00 16.44167 C 4.56 g/m*3 16.44 C 14.9 km/h
594 25-03-2017 17:00:00 16.61667 C 4.82 g/m*3 16.62 C 12.75833 km/h
595 25-03-2017 18:00:00 15.80833 C 4.9 g/m*3 15.81 C 4.425 km/h
596 25-03-2017 19:00:00 11.54167 C 5.45 g/m*3 11.54 C 3.2 km/h
597 25-03-2017 20:00:00 9.98333 C 5.3 g/m*3 9.98 C 4.53333 km/h
598 25-03-2017 21:00:00 9.29167 C 5.33 g/m*3 8.93 C 5.06667 km/h
599 25-03-2017 22:00:00 8.7 C 5.38 g/m*3 8.7 C 3.86667 km/h
600 25-03-2017 23:00:00 7.90833 C 5.23 g/m*3 7.91 C 3.73333 km/h
Sensor: Nr:Datum:Temp:Abs-Feuchte:Windchill:Wind:
Aussen-T/F 601 26-03-2017 00:00:00 7.04167 C 5.07 g/m*3 7.04 C 0.13333 km/h
602 26-03-2017 01:00:00 6.40833 C 5.04 g/m*3 6.41 C 0 km/h
603 26-03-2017 02:00:00 4.825 C 5.09 g/m*3 4.83 C 0 km/h
604 26-03-2017 04:00:00 4.6 C 5.17 g/m*3 4.6 C 0 km/h
605 26-03-2017 05:00:00 4.70833 C 5.24 g/m*3 4.71 C 0 km/h
606 26-03-2017 06:00:00 3.71667 C 5.06 g/m*3 3.72 C 0 km/h
607 26-03-2017 07:00:00 3.56667 C 5.19 g/m*3 3.57 C 0 km/h
608 26-03-2017 08:00:00 3.79167 C 5.3 g/m*3 3.79 C 0 km/h
609 26-03-2017 09:00:00 4.975 C 5.64 g/m*3 4.97 C 0 km/h
610 26-03-2017 10:00:00 7.73333 C 5.87 g/m*3 7.73 C 0 km/h
611 26-03-2017 11:00:00 10.18333 C 5.71 g/m*3 9.53 C 6.59167 km/h
612 26-03-2017 12:00:00 11.85833 C 5.59 g/m*3 11.86 C 6.71667 km/h
613 26-03-2017 13:00:00 13.05 C 5.62 g/m*3 13.05 C 10.06667 km/h
614 26-03-2017 14:00:00 14.4 C 5.62 g/m*3 14.4 C 9.8 km/h
615 26-03-2017 15:00:00 15.575 C 5.48 g/m*3 15.58 C 7.375 km/h
616 26-03-2017 16:00:00 16.5 C 5.03 g/m*3 16.5 C 12.89167 km/h
617 26-03-2017 17:00:00 16.99167 C 4.88 g/m*3 16.99 C 12.63333 km/h
618 26-03-2017 18:00:00 16.775 C 5.28 g/m*3 16.77 C 6.99167 km/h
619 26-03-2017 19:00:00 13.76667 C 6.24 g/m*3 13.77 C 3.33333 km/h
620 26-03-2017 20:00:00 10.56667 C 6.21 g/m*3 10.02 C 6.4 km/h
621 26-03-2017 21:00:00 9.1 C 6.33 g/m*3 9.1 C 0.53333 km/h
622 26-03-2017 22:00:00 8.275 C 6.29 g/m*3 8.28 C 0 km/h
623 26-03-2017 23:00:00 7.00833 C 6.12 g/m*3 7.01 C 0 km/h
624 27-03-2017 00:00:00 5.775 C 5.89 g/m*3 5.78 C 0 km/h
625 27-03-2017 01:00:00 4.94167 C 5.78 g/m*3 4.94 C 0 km/h
Sensor: Nr:Datum:Temp:Abs-Feuchte:Windchill:Wind:
Aussen-T/F 626 27-03-2017 02:00:00 4.13333 C 5.58 g/m*3 4.13 C 0 km/h
627 27-03-2017 03:00:00 3.55833 C 5.36 g/m*3 3.56 C 0 km/h
628 27-03-2017 04:00:00 2.59167 C 5.12 g/m*3 2.59 C 0 km/h
629 27-03-2017 05:00:00 2.075 C 4.98 g/m*3 2.08 C 0 km/h
630 27-03-2017 06:00:00 1.5 C 4.88 g/m*3 1.5 C 0 km/h
631 27-03-2017 07:00:00 1 C 4.79 g/m*3 1 C 0 km/h
632 27-03-2017 08:00:00 1.15 C 4.88 g/m*3 1.15 C 0 km/h
633 27-03-2017 09:00:00 1.975 C 5.16 g/m*3 1.98 C 0 km/h
634 27-03-2017 10:00:00 4.225 C 5.71 g/m*3 4.22 C 0 km/h
635 27-03-2017 11:00:00 8.68333 C 6 g/m*3 8.68 C 1.33333 km/h
636 27-03-2017 12:00:00 12.31667 C 5.36 g/m*3 12.32 C 6.975 km/h
637 27-03-2017 13:00:00 14.83333 C 4.21 g/m*3 14.83 C 12.89167 km/h
638 27-03-2017 14:00:00 15.94167 C 4.04 g/m*3 15.94 C 12.36667 km/h
639 27-03-2017 15:00:00 17.00833 C 4.01 g/m*3 17.01 C 11.7 km/h
640 27-03-2017 16:00:00 18.15 C 4.07 g/m*3 18.15 C 9.13333 km/h
641 27-03-2017 17:00:00 19.85 C 4.25 g/m*3 19.85 C 8.075 km/h
642 27-03-2017 18:00:00 20.30833 C 4.69 g/m*3 20.31 C 5.75833 km/h
643 27-03-2017 19:00:00 16.44167 C 5.73 g/m*3 16.44 C 4.93333 km/h
644 27-03-2017 20:00:00 11.26667 C 5.48 g/m*3 11.27 C 6.975 km/h
645 27-03-2017 21:00:00 9.775 C 5.64 g/m*3 9.78 C 2.54167 km/h
646 27-03-2017 22:00:00 8.01667 C 5.45 g/m*3 8.02 C 0.53333 km/h
647 27-03-2017 23:00:00 6.45 C 5.26 g/m*3 6.45 C 0 km/h
648 28-03-2017 00:00:00 5.85833 C 5.29 g/m*3 5.86 C 0.4 km/h
649 28-03-2017 01:00:00 4.51667 C 5.23 g/m*3 4.52 C 0.13333 km/h
650 28-03-2017 02:00:00 4.05833 C 5.15 g/m*3 4.06 C 0 km/h
Sensor: Nr:Datum:Temp:Abs-Feuchte:Windchill:Wind:
Aussen-T/F 651 28-03-2017 03:00:00 3.225 C 5.04 g/m*3 3.23 C 0 km/h
652 28-03-2017 04:00:00 2.7 C 4.97 g/m*3 2.7 C 0 km/h
653 28-03-2017 05:00:00 2.64167 C 4.97 g/m*3 2.64 C 0 km/h
654 28-03-2017 06:00:00 2.33333 C 4.91 g/m*3 2.33 C 0 km/h
655 28-03-2017 07:00:00 1.66667 C 4.84 g/m*3 1.67 C 0 km/h
656 28-03-2017 08:00:00 2.20833 C 5.06 g/m*3 2.21 C 0 km/h
657 28-03-2017 09:00:00 3.18333 C 5.37 g/m*3 3.18 C 0 km/h
658 28-03-2017 10:00:00 5.45833 C 5.92 g/m*3 5.46 C 0 km/h
659 28-03-2017 11:00:00 9.96667 C 6.87 g/m*3 9.97 C 0 km/h
660 28-03-2017 12:00:00 14.90833 C 8.11 g/m*3 14.91 C 6.84167 km/h
661 28-03-2017 13:00:00 18.45833 C 8.06 g/m*3 18.46 C 12.76667 km/h
662 28-03-2017 14:00:00 20.06667 C 7.97 g/m*3 20.07 C 15.03333 km/h
663 28-03-2017 15:00:00 20.96667 C 7.74 g/m*3 20.97 C 15.56667 km/h
664 28-03-2017 16:00:00 21.39167 C 7.84 g/m*3 21.39 C 15.3 km/h
665 28-03-2017 17:00:00 21.28333 C 8.01 g/m*3 21.28 C 10.475 km/h
666 28-03-2017 18:00:00 19.925 C 8.17 g/m*3 19.93 C 6.56667 km/h
667 28-03-2017 19:00:00 18.525 C 8.17 g/m*3 18.52 C 5.34167 km/h
668 28-03-2017 20:00:00 15.18333 C 8.07 g/m*3 15.18 C 5.06667 km/h
669 28-03-2017 21:00:00 13.76667 C 8.08 g/m*3 13.77 C 4 km/h
670 28-03-2017 22:00:00 13.25 C 8.13 g/m*3 13.25 C 3.33333 km/h
671 28-03-2017 23:00:00 12.175 C 7.94 g/m*3 12.18 C 1.86667 km/h

Maximal/Minimal-Werte vom 01.03.2017 - 28.03.2017

Sensor Min Max Avg
Temp
(Aussen-T/F)
-0.1 °C
13-03-2017  07:00:00
22.5 °C
28-03-2017  17:05:00
8.46 °C
Abs-Feuchte
(Aussen-T/F)
4.01 g/m*3
27-03-2017  15:00:00
10.46 g/m*3
09-03-2017  12:00:00
6.64 g/m*3
Windchill
(Aussen-T/F)
0.09 C
13-03-2017  07:00:00
21.39 C
28-03-2017  16:00:00
8 C

Die Daten stammen von einer Davis Vantage Pro 2 Wetter-Station und werden unter Linux mit der Software wview2wettercgi und aufbereitet. Alle Angaben erfolgen ohne Gewähr für ihre Vollständigkeit oder Richtigkeit.
Kontakt: Rainer Krienke krienke@uni-koblenz.de . Meine Webseiten an der Uni Koblenz oder privat.
Version: $Revision: 0.78 $